createdAt,value
2018-05-02T00:00:02.209Z,2.47
2018-05-02T00:02:30.924Z,2.30
2018-05-02T00:04:59.680Z,2.50
2018-05-02T00:07:28.391Z,2.30
2018-05-02T00:09:57.888Z,2.67
2018-05-02T00:12:26.671Z,2.40
2018-05-02T00:14:56.208Z,2.70
2018-05-02T00:17:24.869Z,2.30
2018-05-02T00:19:54.354Z,2.30
2018-05-02T00:22:22.965Z,2.30
2018-05-02T00:24:52.273Z,2.00
2018-05-02T00:27:21.982Z,2.37
2018-05-02T00:29:50.912Z,2.43
2018-05-02T00:32:19.579Z,2.30
2018-05-02T00:34:49.203Z,2.23
2018-05-02T00:37:18.685Z,2.33
2018-05-02T00:39:47.193Z,2.40
2018-05-02T00:42:15.976Z,2.30
2018-05-02T00:44:44.736Z,1.97
2018-05-02T00:47:13.500Z,2.20
2018-05-02T00:49:42.301Z,2.10
2018-05-02T00:52:11.086Z,1.90
2018-05-02T00:54:40.348Z,2.00
2018-05-02T00:57:10.673Z,2.00
2018-05-02T00:59:39.686Z,2.23
2018-05-02T01:02:08.566Z,2.17
2018-05-02T01:04:38.856Z,2.00
2018-05-02T01:07:07.688Z,2.07
2018-05-02T01:09:36.464Z,2.20
2018-05-02T01:12:05.481Z,2.30
2018-05-02T01:14:34.425Z,2.30
2018-05-02T01:17:03.104Z,2.50
2018-05-02T01:19:32.024Z,2.50
2018-05-02T01:22:01.755Z,2.40
2018-05-02T01:24:32.065Z,2.60
2018-05-02T01:27:01.877Z,2.90
2018-05-02T01:29:31.315Z,2.67
2018-05-02T01:32:00.630Z,3.20
2018-05-02T01:34:29.401Z,3.10
2018-05-02T01:36:58.148Z,3.23
2018-05-02T01:39:26.763Z,3.80
2018-05-02T01:41:55.491Z,3.50
2018-05-02T01:44:24.218Z,3.93
2018-05-02T01:46:52.830Z,4.03
2018-05-02T01:49:25.327Z,4.60
2018-05-02T01:51:54.609Z,4.17
2018-05-02T01:54:23.883Z,4.20
2018-05-02T01:56:52.650Z,4.47
2018-05-02T01:59:21.307Z,5.00
2018-05-02T02:01:49.871Z,5.23
2018-05-02T02:04:18.523Z,4.90
2018-05-02T02:06:47.175Z,5.00
2018-05-02T02:09:15.845Z,4.83
2018-05-02T02:11:45.302Z,4.60
2018-05-02T02:14:14.044Z,5.07
2018-05-02T02:16:42.772Z,5.53
2018-05-02T02:19:11.388Z,5.87
2018-05-02T02:21:39.968Z,5.27
2018-05-02T02:24:08.837Z,5.90
2018-05-02T02:26:38.184Z,5.40
2018-05-02T02:29:07.084Z,5.93
2018-05-02T02:31:35.665Z,5.40
2018-05-02T02:34:05.321Z,6.93
2018-05-02T02:36:34.016Z,6.37
2018-05-02T02:39:02.860Z,7.23
2018-05-02T02:41:31.625Z,7.60
2018-05-02T02:44:00.465Z,7.97
2018-05-02T02:46:29.059Z,7.63
2018-05-02T02:48:57.860Z,8.20
2018-05-02T02:51:26.535Z,8.10
2018-05-02T02:53:56.009Z,8.27
2018-05-02T02:56:25.447Z,7.67
2018-05-02T02:58:55.197Z,8.00
2018-05-02T03:01:24.193Z,7.83
2018-05-02T03:03:53.100Z,7.90
2018-05-02T03:06:21.901Z,7.80
2018-05-02T03:08:50.451Z,8.77
2018-05-02T03:11:19.464Z,8.10
2018-05-02T03:13:48.707Z,7.47
2018-05-02T03:16:17.607Z,8.17
2018-05-02T03:18:47.008Z,10.27
2018-05-02T03:21:15.767Z,11.20
2018-05-02T03:23:44.395Z,10.07
2018-05-02T03:26:13.402Z,10.27
2018-05-02T03:28:43.037Z,10.20
2018-05-02T03:31:12.318Z,9.23
2018-05-02T03:33:42.763Z,9.83
2018-05-02T03:36:12.415Z,9.70
2018-05-02T03:38:41.214Z,9.17
2018-05-02T03:41:10.839Z,9.33
2018-05-02T03:43:40.306Z,9.03
2018-05-02T03:46:09.086Z,10.03
2018-05-02T03:48:37.889Z,8.40
2018-05-02T03:51:06.802Z,7.87
2018-05-02T03:53:36.776Z,8.47
2018-05-02T03:56:06.206Z,8.70
2018-05-02T03:58:35.786Z,8.60
2018-05-02T04:01:22.748Z,9.10
2018-05-02T04:04:09.631Z,8.53
2018-05-02T04:06:56.647Z,9.87
2018-05-02T04:09:25.235Z,9.53
2018-05-02T04:11:56.438Z,9.57
2018-05-02T04:14:25.751Z,9.40
2018-05-02T04:16:54.429Z,9.30
2018-05-02T04:19:23.101Z,9.00
2018-05-02T04:21:51.750Z,9.27
2018-05-02T04:24:20.375Z,8.63
2018-05-02T04:26:49.083Z,9.10
2018-05-02T04:29:17.717Z,8.10
2018-05-02T04:31:46.283Z,8.47
2018-05-02T04:34:15.107Z,9.20
2018-05-02T04:36:44.024Z,10.13
2018-05-02T04:39:12.729Z,10.60
2018-05-02T04:41:41.544Z,11.13
2018-05-02T04:44:10.774Z,10.30
2018-05-02T04:46:39.709Z,11.37
2018-05-02T04:49:08.328Z,12.30
2018-05-02T04:51:37.790Z,11.23
2018-05-02T04:54:06.408Z,12.00
2018-05-02T04:56:35.009Z,10.70
2018-05-02T04:59:03.882Z,11.60
2018-05-02T05:01:33.521Z,11.33
2018-05-02T05:04:04.976Z,11.90
2018-05-02T05:06:34.027Z,11.50
2018-05-02T05:09:04.298Z,10.37
2018-05-02T05:11:33.955Z,10.07
2018-05-02T05:14:04.621Z,10.37
2018-05-02T05:16:34.910Z,9.77
2018-05-02T05:19:03.928Z,9.53
2018-05-02T05:21:32.709Z,10.27
2018-05-02T05:24:01.527Z,9.97
2018-05-02T05:26:30.259Z,10.30
2018-05-02T05:28:58.836Z,9.80
2018-05-02T05:31:29.552Z,10.00
2018-05-02T05:33:59.125Z,9.33
2018-05-02T05:36:27.802Z,8.57
2018-05-02T05:38:57.463Z,8.60
2018-05-02T05:41:26.587Z,8.60
2018-05-02T05:43:55.336Z,8.40
2018-05-02T05:46:24.048Z,7.47
2018-05-02T05:48:52.593Z,6.83
2018-05-02T05:51:21.245Z,6.83
2018-05-02T05:53:49.916Z,5.13
2018-05-02T05:56:18.620Z,5.53
2018-05-02T05:58:47.856Z,6.80
2018-05-02T06:01:17.074Z,5.60
2018-05-02T06:03:47.788Z,5.60
2018-05-02T06:06:17.966Z,5.30
2018-05-02T06:08:47.734Z,4.40
2018-05-02T06:11:19.145Z,5.10
2018-05-02T06:13:48.347Z,5.20
2018-05-02T06:16:17.980Z,4.90
2018-05-02T06:18:54.335Z,5.10
2018-05-02T06:21:23.193Z,7.73
2018-05-02T06:23:51.963Z,5.50
2018-05-02T06:26:21.482Z,4.33
2018-05-02T06:28:50.118Z,4.53
2018-05-02T06:31:19.457Z,4.50
2018-05-02T06:33:49.474Z,4.33
2018-05-02T06:36:18.944Z,4.60
2018-05-02T06:38:49.897Z,4.17
2018-05-02T06:41:18.932Z,4.57
2018-05-02T06:43:49.337Z,4.50
2018-05-02T06:46:18.164Z,4.47
2018-05-02T06:48:47.437Z,4.20
2018-05-02T06:51:17.342Z,4.50
2018-05-02T06:53:46.062Z,3.77
2018-05-02T06:56:14.876Z,4.50
2018-05-02T06:58:45.330Z,4.30
2018-05-02T07:01:15.212Z,4.23
2018-05-02T07:03:43.865Z,4.30
2018-05-02T07:06:12.537Z,3.97
2018-05-02T07:08:42.256Z,4.60
2018-05-02T07:11:11.154Z,5.00
2018-05-02T07:13:41.469Z,4.60
2018-05-02T07:16:10.530Z,4.90
2018-05-02T07:18:39.423Z,4.50
2018-05-02T07:21:08.359Z,4.17
2018-05-02T07:23:37.678Z,3.97
2018-05-02T07:26:07.169Z,3.80
2018-05-02T07:28:36.833Z,4.10
2018-05-02T07:31:07.672Z,3.90
2018-05-02T07:33:36.625Z,3.70
2018-05-02T07:36:05.411Z,3.53
2018-05-02T07:38:34.312Z,3.50
2018-05-02T07:41:04.301Z,4.03
2018-05-02T07:43:33.271Z,3.83
2018-05-02T07:46:03.011Z,4.10
2018-05-02T07:48:33.378Z,3.90
2018-05-02T07:51:04.053Z,3.97
2018-05-02T07:53:34.196Z,4.00
2018-05-02T07:56:04.711Z,3.90
2018-05-02T07:58:34.398Z,3.80
2018-05-02T08:01:04.452Z,3.70
2018-05-02T08:03:34.752Z,3.83
2018-05-02T08:06:04.942Z,3.50
2018-05-02T08:08:33.742Z,4.43
2018-05-02T08:11:03.570Z,3.50
2018-05-02T08:13:33.002Z,3.67
2018-05-02T08:16:01.812Z,4.20
2018-05-02T08:18:31.993Z,4.50
2018-05-02T08:21:02.270Z,4.23
2018-05-02T08:23:32.031Z,3.60
2018-05-02T08:26:01.064Z,4.13
2018-05-02T08:28:30.884Z,4.17
2018-05-02T08:30:59.848Z,4.53
2018-05-02T08:33:29.381Z,4.20
2018-05-02T08:35:58.967Z,4.53
2018-05-02T08:38:27.773Z,4.70
2018-05-02T08:40:56.611Z,4.33
2018-05-02T08:43:26.772Z,4.37
2018-05-02T08:45:56.850Z,3.90
2018-05-02T08:48:26.475Z,4.00
2018-05-02T08:50:55.524Z,3.83
2018-05-02T08:53:24.355Z,4.13
2018-05-02T08:55:53.960Z,3.93
2018-05-02T08:58:23.319Z,3.40
2018-05-02T09:00:52.587Z,3.70
2018-05-02T09:03:21.277Z,3.47
2018-05-02T09:05:50.011Z,3.73
2018-05-02T09:08:18.891Z,3.77
2018-05-02T09:10:47.836Z,4.13
2018-05-02T09:13:16.605Z,5.43
2018-05-02T09:15:46.545Z,4.00
2018-05-02T09:18:16.805Z,4.07
2018-05-02T09:20:45.631Z,3.67
2018-05-02T09:23:14.339Z,3.80
2018-05-02T09:25:43.005Z,3.90
2018-05-02T09:28:13.318Z,4.20
2018-05-02T09:30:42.968Z,4.43
2018-05-02T09:33:11.760Z,4.17
2018-05-02T09:35:41.251Z,4.27
2018-05-02T09:38:10.105Z,4.07
2018-05-02T09:40:39.515Z,4.53
2018-05-02T09:43:08.444Z,4.27
2018-05-02T09:45:38.136Z,4.10
2018-05-02T09:48:07.402Z,4.30
2018-05-02T09:50:37.045Z,4.50
2018-05-02T09:53:05.833Z,3.87
2018-05-02T09:55:36.019Z,4.40
2018-05-02T09:58:06.136Z,4.00
2018-05-02T10:00:34.952Z,4.03
2018-05-02T10:03:03.704Z,4.43
2018-05-02T10:05:32.457Z,4.00
2018-05-02T10:08:01.409Z,4.40
2018-05-02T10:10:30.374Z,3.80
2018-05-02T10:12:59.852Z,4.20
2018-05-02T10:15:29.289Z,4.40
2018-05-02T10:17:58.764Z,4.47
2018-05-02T10:20:27.561Z,4.00
2018-05-02T10:22:56.476Z,4.60
2018-05-02T10:25:25.258Z,4.77
2018-05-02T10:27:54.162Z,4.27
2018-05-02T10:30:24.407Z,4.30
2018-05-02T10:32:53.108Z,3.97
2018-05-02T10:35:23.209Z,4.23
2018-05-02T10:37:53.003Z,3.77
2018-05-02T10:40:22.816Z,4.20
2018-05-02T10:42:52.761Z,3.83
2018-05-02T10:45:22.831Z,4.70
2018-05-02T10:47:51.681Z,4.13
2018-05-02T10:50:20.343Z,4.60
2018-05-02T10:52:50.038Z,3.90
2018-05-02T10:55:18.848Z,4.30
2018-05-02T10:57:47.485Z,4.50
2018-05-02T11:00:17.406Z,4.03
2018-05-02T11:02:47.437Z,3.87
2018-05-02T11:05:16.153Z,3.83
2018-05-02T11:07:44.932Z,4.20
2018-05-02T11:10:13.600Z,4.47
2018-05-02T11:12:42.981Z,3.93
2018-05-02T11:15:12.010Z,4.20
2018-05-02T11:17:41.486Z,3.90
2018-05-02T11:20:10.271Z,4.00
2018-05-02T11:22:39.005Z,4.40
2018-05-02T11:25:07.811Z,3.87
2018-05-02T11:27:36.425Z,4.00
2018-05-02T11:30:05.238Z,3.50
2018-05-02T11:32:34.041Z,3.57
2018-05-02T11:35:02.883Z,3.87
2018-05-02T11:37:34.886Z,3.30
2018-05-02T11:40:03.851Z,4.30
2018-05-02T11:42:34.356Z,3.73
2018-05-02T11:45:04.150Z,3.30
2018-05-02T11:47:33.676Z,3.53
2018-05-02T11:50:02.380Z,3.60
2018-05-02T11:52:31.058Z,3.70
2018-05-02T11:55:00.320Z,3.67
2018-05-02T11:57:29.095Z,3.83
2018-05-02T11:59:58.929Z,3.87
2018-05-02T12:02:27.668Z,4.10
2018-05-02T12:05:01.697Z,4.17
2018-05-02T12:07:32.045Z,3.50
2018-05-02T12:10:01.697Z,3.33
2018-05-02T12:12:31.441Z,3.77
2018-05-02T12:15:00.591Z,4.13
2018-05-02T12:17:29.489Z,3.80
2018-05-02T12:19:58.420Z,4.30
2018-05-02T12:22:27.507Z,3.80
2018-05-02T12:24:58.243Z,3.40
2018-05-02T12:27:27.703Z,4.30
2018-05-02T12:29:56.677Z,4.43
2018-05-02T12:32:44.624Z,4.47
2018-05-02T12:35:13.297Z,4.87
2018-05-02T12:37:42.253Z,4.07
2018-05-02T12:40:11.089Z,3.63
2018-05-02T12:42:40.435Z,3.90
2018-05-02T12:45:09.716Z,3.70
2018-05-02T12:47:38.542Z,3.60
2018-05-02T12:50:07.445Z,4.03
2018-05-02T12:52:37.083Z,4.20
2018-05-02T12:55:07.886Z,3.43
2018-05-02T12:57:38.277Z,6.30
2018-05-02T13:00:09.618Z,4.50
2018-05-02T13:02:38.295Z,3.90
2018-05-02T13:05:07.514Z,4.03
2018-05-02T13:07:36.288Z,4.13
2018-05-02T13:10:05.256Z,3.77
2018-05-02T13:12:34.032Z,3.67
2018-05-02T13:15:02.910Z,3.37
2018-05-02T13:17:32.102Z,3.57
2018-05-02T13:20:01.099Z,3.87
2018-05-02T13:22:31.225Z,4.13
2018-05-02T13:25:00.201Z,4.10
2018-05-02T13:27:30.046Z,3.93
2018-05-02T13:29:59.497Z,3.60
2018-05-02T13:32:30.846Z,3.87
2018-05-02T13:34:59.845Z,3.87
2018-05-02T13:37:28.586Z,3.70
2018-05-02T13:39:57.472Z,3.70
2018-05-02T13:42:26.694Z,3.83
2018-05-02T13:45:02.843Z,3.33
2018-05-02T13:47:33.379Z,3.97
2018-05-02T13:50:02.865Z,4.10
2018-05-02T13:52:32.669Z,3.93
2018-05-02T13:57:44.637Z,3.50
2018-05-02T14:00:13.479Z,3.90
2018-05-02T14:02:44.471Z,3.50
2018-05-02T14:05:13.229Z,3.80
2018-05-02T14:07:42.099Z,3.87
2018-05-02T14:10:11.612Z,4.20
2018-05-02T14:12:41.014Z,4.00
2018-05-02T14:15:10.110Z,4.23
2018-05-02T14:17:39.641Z,3.83
2018-05-02T14:20:09.479Z,3.80
2018-05-02T14:22:38.853Z,3.57
2018-05-02T14:25:07.514Z,4.37
2018-05-02T14:27:37.266Z,3.57
2018-05-02T14:30:06.798Z,3.90
2018-05-02T14:32:36.547Z,4.17
2018-05-02T14:35:05.339Z,4.23
2018-05-02T14:37:34.348Z,4.37
2018-05-02T14:40:04.473Z,4.40
2018-05-02T14:42:33.287Z,4.87
2018-05-02T14:45:02.202Z,4.60
2018-05-02T14:47:31.413Z,4.47
2018-05-02T14:50:00.128Z,5.00
2018-05-02T14:52:29.185Z,4.53
2018-05-02T14:54:57.953Z,4.53
2018-05-02T14:57:27.677Z,4.97
2018-05-02T14:59:58.797Z,4.57
2018-05-02T15:02:28.012Z,5.77
2018-05-02T15:04:56.899Z,4.83
2018-05-02T15:07:25.787Z,4.97
2018-05-02T15:09:54.947Z,5.50
2018-05-02T15:12:23.584Z,5.13
2018-05-02T15:14:52.811Z,5.43
2018-05-02T15:17:21.872Z,4.97
2018-05-02T15:19:50.558Z,4.97
2018-05-02T15:22:19.535Z,6.23
2018-05-02T15:24:48.423Z,5.43
2018-05-02T15:27:17.206Z,5.60
2018-05-02T15:29:46.203Z,5.87
2018-05-02T15:32:16.265Z,5.53
2018-05-02T15:34:46.119Z,5.83
2018-05-02T15:37:16.080Z,5.93
2018-05-02T15:39:45.327Z,6.27
2018-05-02T15:42:14.088Z,6.43
2018-05-02T15:44:42.866Z,6.43
2018-05-02T15:47:12.336Z,6.00
2018-05-02T15:49:40.975Z,6.10
2018-05-02T15:52:09.683Z,6.07
2018-05-02T15:54:38.541Z,5.30
2018-05-02T15:57:08.083Z,5.83
2018-05-02T15:59:38.123Z,5.60
2018-05-02T16:02:07.302Z,5.90
2018-05-02T16:04:36.650Z,6.93
2018-05-02T16:07:05.422Z,6.50
2018-05-02T16:09:36.648Z,5.20
2018-05-02T16:12:06.576Z,6.57
2018-05-02T16:14:37.522Z,5.87
2018-05-02T16:17:06.487Z,6.27
2018-05-02T16:19:37.538Z,6.10
2018-05-02T16:22:08.574Z,6.37
2018-05-02T16:24:38.679Z,6.33
2018-05-02T16:27:08.450Z,6.50
2018-05-02T16:29:37.477Z,6.23
2018-05-02T16:32:08.676Z,6.67
2018-05-02T16:34:38.222Z,6.03
2018-05-02T16:37:07.438Z,6.07
2018-05-02T16:39:36.730Z,6.27
2018-05-02T16:42:05.713Z,6.80
2018-05-02T16:44:34.828Z,5.70
2018-05-02T16:47:04.607Z,6.10
2018-05-02T16:49:34.341Z,5.60
2018-05-02T16:52:05.389Z,7.23
2018-05-02T16:54:34.237Z,6.70
2018-05-02T16:57:03.230Z,7.97
2018-05-02T16:59:32.209Z,6.00
2018-05-02T17:02:00.974Z,6.13
2018-05-02T17:04:30.087Z,7.10
2018-05-02T17:06:59.600Z,5.90
2018-05-02T17:09:28.500Z,7.00
2018-05-02T17:11:57.325Z,6.70
2018-05-02T17:14:26.828Z,5.67
2018-05-02T17:16:55.822Z,6.33
2018-05-02T17:19:24.896Z,6.03
2018-05-02T17:21:55.102Z,6.00
2018-05-02T17:24:25.380Z,6.43
2018-05-02T17:26:55.010Z,6.90
2018-05-02T17:29:23.889Z,6.57
2018-05-02T17:31:52.812Z,8.50
2018-05-02T17:34:22.142Z,7.30
2018-05-02T17:36:52.010Z,6.50
2018-05-02T17:39:21.853Z,6.17
2018-05-02T17:41:51.451Z,6.30
2018-05-02T17:44:20.087Z,5.83
2018-05-02T17:46:50.903Z,5.70
2018-05-02T17:49:20.537Z,6.03
2018-05-02T17:51:49.971Z,6.20
2018-05-02T17:54:18.856Z,6.43
2018-05-02T17:56:47.795Z,7.67
2018-05-02T17:59:16.396Z,6.73
2018-05-02T18:01:45.052Z,8.00
2018-05-02T18:04:13.682Z,7.33
2018-05-02T18:06:42.368Z,7.97
2018-05-02T18:09:11.173Z,9.03
2018-05-02T18:11:40.336Z,7.47
2018-05-02T18:14:09.133Z,7.33
2018-05-02T18:16:37.915Z,6.53
2018-05-02T18:19:08.916Z,7.77
2018-05-02T18:21:38.169Z,8.30
2018-05-02T18:24:07.718Z,7.13
2018-05-02T18:26:36.560Z,7.27
2018-05-02T18:29:05.569Z,6.90
2018-05-02T18:31:35.128Z,6.87
2018-05-02T18:34:04.555Z,7.67
2018-05-02T18:36:34.060Z,6.63
2018-05-02T18:39:03.541Z,6.77
2018-05-02T18:41:33.864Z,6.40
2018-05-02T18:44:03.158Z,6.83
2018-05-02T18:46:33.279Z,7.37
2018-05-02T18:49:03.220Z,7.60
2018-05-02T18:51:32.327Z,7.80
2018-05-02T18:54:01.236Z,8.37
2018-05-02T18:56:30.053Z,8.23
2018-05-02T18:58:59.770Z,7.40
2018-05-02T19:01:29.273Z,7.43
2018-05-02T19:03:59.236Z,7.63
2018-05-02T19:06:29.198Z,7.50
2018-05-02T19:08:58.643Z,7.20
2018-05-02T19:11:28.765Z,7.17
2018-05-02T19:14:01.712Z,7.63
2018-05-02T19:16:30.945Z,7.33
2018-05-02T19:19:05.746Z,7.10
2018-05-02T19:21:35.476Z,7.60
2018-05-02T19:24:04.723Z,7.17
2018-05-02T19:26:37.698Z,6.63
2018-05-02T19:29:06.593Z,7.47
2018-05-02T19:31:41.211Z,7.10
2018-05-02T19:34:10.701Z,7.10
2018-05-02T19:36:40.632Z,7.50
2018-05-02T19:39:10.622Z,7.50
2018-05-02T19:41:45.000Z,7.07
2018-05-02T19:44:14.964Z,7.83
2018-05-02T19:46:45.248Z,7.60
2018-05-02T19:49:15.838Z,7.50
2018-05-02T19:54:51.592Z,6.80
2018-05-02T19:57:21.833Z,6.67
2018-05-02T19:59:50.872Z,6.67
2018-05-02T20:02:25.441Z,7.10
2018-05-02T20:04:54.629Z,7.30
2018-05-02T20:07:28.695Z,6.80
2018-05-02T20:10:03.208Z,7.40
2018-05-02T20:12:38.052Z,7.87
2018-05-02T20:15:06.900Z,7.40
2018-05-02T20:17:35.721Z,7.77
2018-05-02T20:20:04.752Z,7.37
2018-05-02T20:22:33.754Z,7.67
2018-05-02T20:25:03.375Z,7.33
2018-05-02T20:27:33.123Z,7.17
2018-05-02T20:30:02.867Z,8.30
2018-05-02T20:32:31.988Z,8.70
2018-05-02T20:35:03.263Z,8.40
2018-05-02T20:37:32.129Z,8.00
2018-05-02T20:40:01.177Z,8.07
2018-05-02T20:42:30.357Z,7.80
2018-05-02T20:44:59.848Z,8.10
2018-05-02T20:47:29.144Z,7.70
2018-05-02T20:49:57.869Z,7.50
2018-05-02T20:52:26.701Z,6.63
2018-05-02T20:54:55.574Z,7.37
2018-05-02T20:57:24.476Z,7.67
2018-05-02T20:59:54.532Z,7.40
2018-05-02T21:02:24.363Z,7.40
2018-05-02T21:04:54.586Z,7.10
2018-05-02T21:07:24.279Z,7.70
2018-05-02T21:09:53.014Z,8.07
2018-05-02T21:12:21.796Z,7.50
2018-05-02T21:14:50.441Z,7.63
2018-05-02T21:17:19.179Z,7.70
2018-05-02T21:19:47.910Z,7.27
2018-05-02T21:22:17.728Z,7.53
2018-05-02T21:24:46.655Z,7.20
2018-05-02T21:27:16.184Z,7.77
2018-05-02T21:29:45.203Z,8.30
2018-05-02T21:32:15.281Z,7.23
2018-05-02T21:34:45.191Z,7.50
2018-05-02T21:37:14.042Z,7.20
2018-05-02T21:39:43.701Z,7.53
2018-05-02T21:42:12.540Z,7.07
2018-05-02T21:44:41.206Z,7.20
2018-05-02T21:47:11.619Z,7.13
2018-05-02T21:49:40.485Z,6.77
2018-05-02T21:52:09.249Z,7.10
2018-05-02T21:54:38.264Z,7.60
2018-05-02T21:57:07.940Z,7.33
2018-05-02T21:59:37.573Z,7.40
2018-05-02T22:02:07.014Z,7.07
2018-05-02T22:04:36.286Z,7.47
2018-05-02T22:07:05.214Z,7.27
2018-05-02T22:09:35.311Z,7.67
2018-05-02T22:12:05.077Z,7.63
2018-05-02T22:14:34.663Z,7.47
2018-05-02T22:17:04.774Z,7.57
2018-05-02T22:19:33.584Z,7.43
2018-05-02T22:22:02.633Z,8.27
2018-05-02T22:24:32.516Z,7.80
2018-05-02T22:27:02.189Z,7.63
2018-05-02T22:29:33.035Z,8.63
2018-05-02T22:32:01.855Z,8.47
2018-05-02T22:34:30.627Z,8.10
2018-05-02T22:36:59.377Z,8.00
2018-05-02T22:39:29.668Z,8.03
2018-05-02T22:41:59.143Z,8.07
2018-05-02T22:44:27.917Z,8.87
2018-05-02T22:46:56.611Z,8.60
2018-05-02T22:49:25.329Z,8.10
2018-05-02T22:51:54.845Z,8.27
2018-05-02T22:54:24.630Z,7.87
2018-05-02T22:56:54.158Z,8.53
2018-05-02T22:59:23.595Z,8.77
2018-05-02T23:01:53.662Z,9.10
2018-05-02T23:04:22.421Z,9.20
2018-05-02T23:06:50.964Z,8.70
2018-05-02T23:09:20.176Z,8.37
2018-05-02T23:11:48.836Z,8.70
2018-05-02T23:14:17.410Z,8.87
2018-05-02T23:16:46.070Z,8.50
2018-05-02T23:19:14.594Z,8.40
2018-05-02T23:21:43.899Z,9.13
2018-05-02T23:24:12.592Z,9.07
2018-05-02T23:26:41.219Z,8.90
2018-05-02T23:29:11.219Z,9.23
2018-05-02T23:31:39.990Z,8.80
2018-05-02T23:34:08.689Z,8.30
2018-05-02T23:36:38.182Z,8.90
2018-05-02T23:39:06.776Z,8.80
2018-05-02T23:41:35.369Z,9.27
2018-05-02T23:44:04.036Z,8.63
2018-05-02T23:46:32.643Z,8.90
2018-05-02T23:49:01.342Z,9.57
2018-05-02T23:51:30.490Z,8.87
2018-05-02T23:53:59.149Z,9.27
2018-05-02T23:56:28.542Z,8.97
2018-05-02T23:58:57.579Z,9.40
